Time;durP1;ratioP1;P1;durP2;ratioP2;P2;SDS_P1;SDS_P2;PMS_P1;PMS_P2;Temp;Humidity;BMP_temperature;BMP_pressure;BME280_temperature;BME280_humidity;BME280_pressure;Samples;Min_cycle;Max_cycle;Signal;HPM_P1;HPM_P2
2022/12/07 00:00:48;;;;;;;15.02;9.43;;;3.00;99.90;;;;;;5096305;28;20214;-83
2022/12/07 00:03:16;;;;;;;13.75;8.32;;;3.00;99.90;;;;;;5098244;28;20229;-83
2022/12/07 00:05:42;;;;;;;18.10;9.43;;;3.00;99.90;;;;;;5096975;28;20219;-82
2022/12/07 00:08:09;;;;;;;15.20;9.55;;;3.10;99.90;;;;;;5097131;28;20278;-82
2022/12/07 00:10:36;;;;;;;13.65;8.38;;;3.00;99.90;;;;;;5096627;28;20237;-82
2022/12/07 00:13:03;;;;;;;11.25;8.20;;;2.90;99.90;;;;;;5096575;28;20262;-82
2022/12/07 00:15:30;;;;;;;12.95;8.18;;;2.80;99.90;;;;;;5097179;28;20205;-83
2022/12/07 00:17:56;;;;;;;16.70;10.13;;;2.70;99.90;;;;;;5089912;28;20281;-83
2022/12/07 00:20:25;;;;;;;12.07;8.77;;;2.80;99.90;;;;;;5083112;28;20266;-83
2022/12/07 00:22:51;;;;;;;11.68;7.60;;;3.10;99.90;;;;;;5089168;28;20207;-83
2022/12/07 00:25:18;;;;;;;15.75;8.75;;;3.00;99.90;;;;;;5089603;28;20253;-82
2022/12/07 00:27:45;;;;;;;12.95;8.55;;;2.80;99.90;;;;;;5086730;28;20327;-82
2022/12/07 00:30:12;;;;;;;15.52;9.82;;;3.00;99.90;;;;;;5083795;28;20217;-83
2022/12/07 00:32:39;;;;;;;11.77;7.85;;;2.80;99.90;;;;;;5083398;28;20210;-84
2022/12/07 00:35:06;;;;;;;13.52;8.10;;;2.70;99.90;;;;;;5081492;28;20195;-83
2022/12/07 00:37:34;;;;;;;13.13;8.63;;;2.70;99.90;;;;;;5089984;28;20262;-83
2022/12/07 00:40:01;;;;;;;12.38;7.93;;;2.70;99.90;;;;;;5089635;28;20275;-83
2022/12/07 00:42:28;;;;;;;13.98;8.48;;;2.40;99.90;;;;;;5084961;28;20342;-83
2022/12/07 00:44:55;;;;;;;14.32;8.93;;;2.40;99.90;;;;;;5085637;28;20289;-83
2022/12/07 00:47:22;;;;;;;12.68;9.60;;;;;;;;;;5043328;22;20231;-82
2022/12/07 00:49:56;;;;;;;13.35;9.38;;;;;;;;;;4955434;29;20293;-83
2022/12/07 00:52:50;;;;;;;9.70;6.55;;;;;;;;;;4956542;28;20640;-83
2022/12/07 00:55:22;;;;;;;9.27;6.72;;;;;;;;;;4957654;29;20608;-84
2022/12/07 00:57:49;;;;;;;10.70;7.82;;;;;;;;;;4957294;28;20227;-84
2022/12/07 01:00:43;;;;;;;9.55;7.40;;;2.20;99.90;;;;;;4958721;29;20293;-84
2022/12/07 01:04:01;;;;;;;;;;;;;;;;;;;;;
2022/12/07 01:17:05;;;;;;;11.25;7.07;;;2.20;99.90;;;;;;4897907;29;20230;-83
2022/12/07 01:23:55;;;;;;;10.05;7.38;;;2.20;99.90;;;;;;4871922;29;20221;-84
2022/12/07 01:46:27;;;;;;;7.00;5.43;;;2.10;91.40;;;;;;4959427;28;20230;-82
2022/12/07 02:06:19;;;;;;;8.23;5.93;;;2.10;31.30;;;;;;4863002;29;20246;-84
2022/12/07 02:10:09;;;;;;;;;;;;;;;;;;;;;
2022/12/07 02:16:55;;;;;;;8.63;5.15;;;2.20;51.60;;;;;;4929538;29;20207;-83
2022/12/07 02:20:15;;;;;;;;;;;;;;;;;;;;;
2022/12/07 02:23:47;;;;;;;8.98;6.25;;;2.10;28.50;;;;;;4953072;28;20227;-83
2022/12/07 03:09:14;;;;;;;7.55;5.97;;;1.90;99.90;;;;;;5051950;28;20230;-84
2022/12/07 03:11:48;;;;;;;7.28;5.78;;;1.90;99.90;;;;;;5076455;22;20234;-83
2022/12/07 03:14:19;;;;;;;9.05;6.38;;;1.60;99.90;;;;;;5094001;28;20233;-83
2022/12/07 03:16:53;;;;;;;8.70;6.38;;;1.80;99.90;;;;;;5086965;28;20195;-83
2022/12/07 03:19:23;;;;;;;9.00;5.72;;;1.80;99.90;;;;;;5082600;28;20274;-83
2022/12/07 03:21:56;;;;;;;12.10;6.35;;;1.90;99.90;;;;;;5082611;28;20230;-83
2022/12/07 03:24:27;;;;;;;8.40;6.07;;;1.80;99.90;;;;;;5082555;28;20187;-83
2022/12/07 03:27:01;;;;;;;6.53;5.70;;;1.90;99.90;;;;;;5082459;28;20210;-83
2022/12/07 03:29:36;;;;;;;8.60;6.25;;;1.80;99.90;;;;;;5082210;28;20618;-84
2022/12/07 03:32:06;;;;;;;8.35;5.97;;;1.80;99.90;;;;;;5083507;28;20321;-83
2022/12/07 03:34:37;;;;;;;8.73;7.18;;;1.70;99.90;;;;;;5084994;28;20203;-83
2022/12/07 03:37:09;;;;;;;9.23;7.30;;;1.90;99.90;;;;;;5087491;28;20251;-83
2022/12/07 03:39:40;;;;;;;8.40;6.05;;;1.80;99.90;;;;;;5090932;28;20225;-84
2022/12/07 03:42:11;;;;;;;9.82;7.20;;;1.90;99.90;;;;;;5098195;28;20237;-82
2022/12/07 03:44:41;;;;;;;12.15;8.40;;;2.10;99.90;;;;;;5099530;28;20209;-83
2022/12/07 03:47:15;;;;;;;8.18;6.43;;;1.40;99.90;;;;;;5099506;28;20241;-82
2022/12/07 03:49:47;;;;;;;9.25;8.00;;;1.80;99.90;;;;;;5098589;28;20203;-81
2022/12/07 03:52:22;;;;;;;7.78;6.07;;;2.00;99.90;;;;;;5099045;28;20230;-82
2022/12/07 03:54:57;;;;;;;8.23;5.90;;;1.90;99.90;;;;;;5099040;28;20194;-82
2022/12/07 03:57:26;;;;;;;12.70;7.93;;;1.60;99.90;;;;;;5099230;28;20178;-82
2022/12/07 03:59:55;;;;;;;11.02;7.50;;;2.20;99.90;;;;;;5099515;28;20261;-82
2022/12/07 04:02:24;;;;;;;12.35;7.15;;;2.20;99.90;;;;;;5098709;28;20286;-81
2022/12/07 04:04:51;;;;;;;11.80;8.45;;;2.10;99.90;;;;;;5096413;28;20217;-82
2022/12/07 04:07:18;;;;;;;12.23;7.75;;;2.00;99.90;;;;;;5098740;28;20206;-82
2022/12/07 04:09:44;;;;;;;14.00;7.80;;;2.00;99.90;;;;;;5098870;28;20242;-82
2022/12/07 04:12:11;;;;;;;11.20;7.57;;;1.90;99.90;;;;;;5098543;28;20245;-82
2022/12/07 04:14:39;;;;;;;23.70;7.85;;;1.90;99.90;;;;;;5098407;28;20238;-82
2022/12/07 04:17:06;;;;;;;15.65;8.57;;;1.90;99.90;;;;;;5098823;28;20213;-82
2022/12/07 04:19:35;;;;;;;14.43;9.38;;;2.20;99.90;;;;;;5098069;28;20242;-82
2022/12/07 04:22:04;;;;;;;15.90;9.25;;;1.70;99.90;;;;;;5098414;28;20214;-83
2022/12/07 04:24:31;;;;;;;13.50;8.90;;;1.50;99.90;;;;;;5098296;28;20259;-83
2022/12/07 04:26:58;;;;;;;16.52;9.25;;;1.80;99.90;;;;;;5097313;28;20221;-83
2022/12/07 04:29:25;;;;;;;15.20;10.27;;;1.50;99.90;;;;;;5097402;28;20226;-83
2022/12/07 04:31:54;;;;;;;19.48;11.48;;;1.70;99.90;;;;;;5081687;28;20310;-84
2022/12/07 04:34:21;;;;;;;16.75;10.05;;;2.00;99.90;;;;;;5084493;28;20203;-83
2022/12/07 04:36:48;;;;;;;17.45;9.90;;;1.50;99.90;;;;;;5093741;28;20206;-83
2022/12/07 04:39:20;;;;;;;14.45;9.18;;;1.90;99.90;;;;;;5093839;28;20234;-83
2022/12/07 04:41:47;;;;;;;22.60;11.68;;;1.60;99.90;;;;;;5090678;28;20227;-83
2022/12/07 04:44:15;;;;;;;22.05;10.75;;;1.80;99.90;;;;;;5090582;28;20206;-83
2022/12/07 04:46:42;;;;;;;27.23;11.02;;;2.10;99.90;;;;;;5090025;28;20278;-83
2022/12/07 04:49:10;;;;;;;24.90;12.55;;;1.70;99.90;;;;;;5088626;28;20204;-83
2022/12/07 04:51:37;;;;;;;17.42;10.50;;;1.60;99.90;;;;;;5093719;28;20281;-82
2022/12/07 04:54:04;;;;;;;24.77;12.68;;;1.00;99.90;;;;;;5097900;28;20485;-82
2022/12/07 04:56:31;;;;;;;24.92;15.75;;;1.80;99.90;;;;;;5089577;28;20661;-83
2022/12/07 04:58:59;;;;;;;24.80;12.32;;;1.70;99.90;;;;;;5081169;28;20233;-83
2022/12/07 05:01:26;;;;;;;29.77;15.32;;;;;;;;;;5082194;28;20219;-84
2022/12/07 05:03:53;;;;;;;20.63;12.50;;;;;;;;;;5077209;28;20296;-83
2022/12/07 05:06:21;;;;;;;24.80;13.27;;;2.00;99.90;;;;;;5075972;28;20751;-83
2022/12/07 05:08:48;;;;;;;22.58;13.00;;;1.90;99.90;;;;;;5079489;28;20229;-84
2022/12/07 05:11:37;;;;;;;26.02;13.65;;;1.70;99.90;;;;;;5079614;28;20234;-83
2022/12/07 05:14:02;;;;;;;21.67;13.82;;;2.20;99.90;;;;;;5079910;28;20209;-84
2022/12/07 05:16:30;;;;;;;26.05;13.48;;;;;;;;;;5079116;28;20233;-83
2022/12/07 05:18:57;;;;;;;18.98;12.38;;;2.10;99.90;;;;;;5078760;28;20208;-83
2022/12/07 05:21:25;;;;;;;23.15;14.10;;;1.10;99.90;;;;;;5076683;28;20372;-83
2022/12/07 05:23:52;;;;;;;21.90;13.48;;;2.40;99.90;;;;;;5079692;28;20294;-84
2022/12/07 05:26:19;;;;;;;34.30;14.63;;;2.40;99.90;;;;;;5078946;28;20309;-83
2022/12/07 05:28:50;;;;;;;28.67;14.82;;;1.80;99.90;;;;;;5084278;28;20249;-84
2022/12/07 05:31:17;;;;;;;28.08;14.68;;;1.90;99.90;;;;;;5082857;28;20250;-83
2022/12/07 05:33:44;;;;;;;29.08;15.30;;;2.00;99.90;;;;;;5085352;28;20213;-84
2022/12/07 05:36:11;;;;;;;27.73;13.73;;;2.10;99.90;;;;;;5081426;28;20266;-84
2022/12/07 05:38:39;;;;;;;28.05;15.38;;;2.50;99.90;;;;;;5080912;28;20686;-84
2022/12/07 05:41:07;;;;;;;26.52;14.48;;;2.30;99.90;;;;;;5091468;28;20250;-83
2022/12/07 05:43:54;;;;;;;32.47;15.52;;;2.10;99.90;;;;;;5093069;28;20210;-82
2022/12/07 05:46:21;;;;;;;27.70;15.27;;;2.30;99.90;;;;;;5085152;28;20319;-83
2022/12/07 05:48:48;;;;;;;25.38;15.20;;;2.30;99.90;;;;;;5085087;28;20202;-83
2022/12/07 05:51:15;;;;;;;33.17;17.23;;;2.60;99.90;;;;;;5083700;28;20232;-82
2022/12/07 05:53:43;;;;;;;29.55;15.90;;;2.30;99.90;;;;;;5087065;28;20210;-83
2022/12/07 05:56:10;;;;;;;27.98;15.70;;;2.40;99.90;;;;;;5090942;28;20218;-83
2022/12/07 06:01:23;;;;;;;29.83;16.33;;;2.50;99.90;;;;;;5058033;28;20253;-83
2022/12/07 06:03:50;;;;;;;29.85;17.13;;;2.60;99.90;;;;;;5083059;28;20210;-83
2022/12/07 06:06:17;;;;;;;27.85;16.48;;;2.60;99.90;;;;;;5083718;28;20257;-83
2022/12/07 06:08:45;;;;;;;31.52;17.85;;;2.80;99.90;;;;;;5083872;28;20695;-83
2022/12/07 06:13:57;;;;;;;39.08;20.98;;;2.90;99.90;;;;;;5094468;28;20695;-83
2022/12/07 06:16:24;;;;;;;31.60;17.35;;;2.70;99.90;;;;;;5089351;28;20268;-84
2022/12/07 06:18:51;;;;;;;30.02;16.08;;;2.80;99.90;;;;;;5082336;28;20679;-83
2022/12/07 06:21:17;;;;;;;36.15;17.75;;;2.40;99.90;;;;;;5082402;28;20664;-83
2022/12/07 06:23:47;;;;;;;33.63;18.05;;;2.80;99.90;;;;;;5083622;28;20232;-83
2022/12/07 06:26:14;;;;;;;38.42;20.30;;;2.90;99.90;;;;;;5083957;28;20219;-82
2022/12/07 06:28:41;;;;;;;31.10;18.77;;;2.60;99.90;;;;;;5094982;28;20577;-82
2022/12/07 06:31:08;;;;;;;38.30;20.13;;;2.70;99.90;;;;;;5093574;28;20219;-82
2022/12/07 06:33:35;;;;;;;32.08;15.90;;;2.70;99.90;;;;;;5092227;28;20270;-82
2022/12/07 06:36:02;;;;;;;31.92;18.02;;;2.50;99.90;;;;;;5084929;28;20206;-82
2022/12/07 06:38:29;;;;;;;31.50;16.88;;;3.20;99.90;;;;;;5085147;28;20230;-82
2022/12/07 06:40:57;;;;;;;28.77;16.77;;;2.50;99.90;;;;;;5095898;28;20266;-81
2022/12/07 06:43:24;;;;;;;31.00;17.73;;;2.80;99.90;;;;;;5099729;28;20206;-81
2022/12/07 06:45:51;;;;;;;32.63;16.98;;;2.70;99.90;;;;;;5100054;28;20210;-81
2022/12/07 06:48:17;;;;;;;29.92;15.10;;;2.50;99.90;;;;;;5078398;28;20708;-82
2022/12/07 06:50:45;;;;;;;34.22;16.40;;;2.70;99.90;;;;;;5077238;28;20308;-82
2022/12/07 06:53:12;;;;;;;35.65;17.60;;;2.60;99.90;;;;;;5077164;28;20230;-83
2022/12/07 06:55:39;;;;;;;33.05;16.60;;;2.80;99.90;;;;;;5078763;28;20255;-83
2022/12/07 06:58:07;;;;;;;30.38;17.83;;;2.90;99.90;;;;;;5079387;28;20206;-84
2022/12/07 07:00:35;;;;;;;32.78;17.67;;;3.00;99.90;;;;;;5080472;28;20673;-83
2022/12/07 07:03:01;;;;;;;38.15;18.13;;;3.20;99.90;;;;;;5082846;28;20210;-83
2022/12/07 07:05:28;;;;;;;48.70;23.00;;;2.80;99.90;;;;;;5088466;28;20204;-83
2022/12/07 07:07:55;;;;;;;32.00;18.67;;;3.20;99.90;;;;;;5083140;28;20249;-84
2022/12/07 07:10:22;;;;;;;35.17;18.47;;;;;;;;;;5040654;28;1103050;-83
2022/12/07 07:12:49;;;;;;;33.05;18.90;;;3.20;99.90;;;;;;5081408;28;20423;-84
2022/12/07 07:15:17;;;;;;;41.10;21.15;;;3.20;99.90;;;;;;5082847;28;20266;-83
2022/12/07 07:17:44;;;;;;;37.42;19.55;;;3.40;99.90;;;;;;5084548;28;20651;-83
2022/12/07 07:20:12;;;;;;;45.13;22.90;;;3.00;99.90;;;;;;5087248;28;20213;-83
2022/12/07 07:22:39;;;;;;;38.28;21.23;;;3.00;99.90;;;;;;5080897;28;20281;-83
2022/12/07 07:25:06;;;;;;;39.25;18.88;;;3.30;99.90;;;;;;5082346;28;20202;-83
2022/12/07 07:27:33;;;;;;;37.47;21.67;;;3.30;99.90;;;;;;5081332;28;20219;-83
2022/12/07 07:30:00;;;;;;;43.85;24.05;;;3.10;99.90;;;;;;5081741;28;20210;-83
2022/12/07 07:32:28;;;;;;;43.45;23.45;;;3.30;99.90;;;;;;5082503;28;20213;-83
2022/12/07 07:34:55;;;;;;;38.45;20.38;;;3.60;99.90;;;;;;5080817;28;20203;-85
2022/12/07 07:37:22;;;;;;;41.22;18.77;;;3.30;99.90;;;;;;5081342;28;20297;-85
2022/12/07 07:39:49;;;;;;;28.88;17.10;;;3.20;99.90;;;;;;5080358;28;20240;-84
2022/12/07 07:42:16;;;;;;;25.25;15.00;;;3.70;99.90;;;;;;5080979;28;20222;-84
2022/12/07 07:44:42;;;;;;;37.78;16.35;;;3.40;99.90;;;;;;5080428;28;20207;-84
2022/12/07 07:47:09;;;;;;;20.45;12.43;;;3.50;99.90;;;;;;5082623;28;20218;-84
2022/12/07 07:49:37;;;;;;;26.05;14.05;;;3.50;99.90;;;;;;5081197;28;20711;-83
2022/12/07 07:52:06;;;;;;;22.90;13.52;;;3.60;99.90;;;;;;5073939;28;20218;-83
2022/12/07 07:54:33;;;;;;;21.42;13.50;;;3.40;99.90;;;;;;5081582;28;20199;-83
2022/12/07 07:57:00;;;;;;;26.85;15.38;;;3.20;99.90;;;;;;5082190;28;20202;-83
2022/12/07 07:59:27;;;;;;;21.98;13.20;;;3.70;99.90;;;;;;5082217;28;20202;-83
2022/12/07 08:01:54;;;;;;;21.63;12.60;;;3.60;99.90;;;;;;5082892;28;20717;-84
2022/12/07 08:04:21;;;;;;;21.77;12.48;;;3.70;99.90;;;;;;5081953;28;20221;-84
2022/12/07 08:06:49;;;;;;;18.67;10.90;;;3.40;99.90;;;;;;5081180;28;20219;-84
2022/12/07 08:09:16;;;;;;;18.55;11.35;;;3.60;99.90;;;;;;5089142;28;20274;-83
2022/12/07 08:11:43;;;;;;;19.27;11.10;;;;;;;;;;5084912;28;20254;-84
2022/12/07 08:14:12;;;;;;;14.65;9.30;;;3.70;99.90;;;;;;5086711;28;20203;-83
2022/12/07 08:17:12;;;;;;;15.65;9.63;;;3.80;99.90;;;;;;5088407;28;20198;-84
2022/12/07 08:19:39;;;;;;;15.30;9.25;;;3.70;99.90;;;;;;5052806;28;20610;-83
2022/12/07 08:22:07;;;;;;;10.77;7.80;;;3.70;99.90;;;;;;5085295;28;20226;-84
2022/12/07 08:24:34;;;;;;;15.15;8.25;;;3.40;99.90;;;;;;5086001;28;20267;-83
2022/12/07 08:27:01;;;;;;;14.82;8.77;;;3.80;99.90;;;;;;5082699;28;20222;-83
2022/12/07 08:29:28;;;;;;;9.05;7.25;;;3.70;99.90;;;;;;5082864;28;20672;-84
2022/12/07 08:31:55;;;;;;;10.93;6.90;;;4.10;99.90;;;;;;5083321;28;20258;-84
2022/12/07 08:34:22;;;;;;;12.40;7.03;;;3.80;99.90;;;;;;5085734;28;20194;-84
2022/12/07 08:36:49;;;;;;;10.02;7.15;;;3.90;99.90;;;;;;5091183;28;20201;-83
2022/12/07 08:39:17;;;;;;;9.15;7.72;;;3.80;99.90;;;;;;5092968;28;20237;-83
2022/12/07 08:41:44;;;;;;;6.80;5.47;;;3.80;99.90;;;;;;5092477;28;20258;-82
2022/12/07 08:44:10;;;;;;;9.93;5.88;;;4.10;99.90;;;;;;5080156;28;20202;-83
2022/12/07 08:46:39;;;;;;;7.22;5.15;;;4.20;99.90;;;;;;5079376;28;20284;-83
2022/12/07 08:49:12;;;;;;;4.07;3.65;;;4.20;98.40;;;;;;5079312;28;20233;-83
2022/12/07 08:51:40;;;;;;;3.60;3.30;;;3.90;1.00;;;;;;5079985;28;20300;-84
2022/12/07 08:54:11;;;;;;;4.05;3.33;;;4.00;1.00;;;;;;5070867;28;20294;-83
2022/12/07 08:56:40;;;;;;;3.22;2.90;;;4.10;1.00;;;;;;5083036;28;20225;-83
2022/12/07 08:59:07;;;;;;;3.47;3.17;;;3.90;1.00;;;;;;5078358;28;20265;-83
2022/12/07 09:01:34;;;;;;;2.75;2.55;;;3.90;99.90;;;;;;5080279;28;20229;-83
2022/12/07 09:04:01;;;;;;;3.08;2.65;;;4.00;99.90;;;;;;5086602;28;20266;-84
2022/12/07 09:06:28;;;;;;;2.53;2.33;;;3.90;99.90;;;;;;5084281;28;20209;-85
2022/12/07 09:08:59;;;;;;;3.00;2.80;;;3.70;93.00;;;;;;5086516;28;20222;-83
2022/12/07 09:50:00;;;;;;;3.10;2.90;;;;;;;;;;4969530;28;20274;-85
2022/12/07 10:03:17;;;;;;;3.00;2.70;;;3.70;1.00;;;;;;4947908;28;20276;-85
2022/12/07 10:06:32;;;;;;;4.18;3.78;;;3.70;1.00;;;;;;5010253;28;20220;-84
2022/12/07 10:16:46;;;;;;;3.60;3.15;;;3.90;1.00;;;;;;4969421;28;20460;-84
2022/12/07 10:22:38;;;;;;;4.35;3.20;;;;;;;;;;4980217;28;20273;-83
2022/12/07 10:25:29;;;;;;;4.32;2.72;;;3.70;1.00;;;;;;5003267;28;20211;-83
2022/12/07 10:28:04;;;;;;;5.05;3.33;;;;;;;;;;5063507;28;20225;-86
2022/12/07 10:30:39;;;;;;;4.18;3.78;;;;;;;;;;5064906;28;20538;-84
2022/12/07 10:33:41;;;;;;;3.65;3.30;;;3.90;72.30;;;;;;5063865;28;20198;-86
2022/12/07 10:36:55;;;;;;;5.07;3.85;;;3.90;5.20;;;;;;5065071;28;20199;-85
2022/12/07 10:39:31;;;;;;;6.00;3.55;;;;;;;;;;5062758;28;20294;-85
2022/12/07 10:42:11;;;;;;;3.15;2.95;;;;;;;;;;5065432;28;20295;-86
2022/12/07 10:45:30;;;;;;;3.65;2.20;;;3.70;1.00;;;;;;5069057;28;20199;-86
2022/12/07 10:51:29;;;;;;;2.65;2.45;;;3.60;1.00;;;;;;5017315;28;20242;-85
2022/12/07 10:58:50;;;;;;;;;;;;;;;;;;;;;
2022/12/07 11:11:46;;;;;;;5.50;3.65;;;4.10;1.00;;;;;;4983297;28;20224;-84
2022/12/07 11:17:58;;;;;;;6.28;4.85;;;4.20;40.10;;;;;;5020933;28;20196;-84
2022/12/07 11:23:50;;;;;;;6.43;5.10;;;4.30;36.90;;;;;;5043093;28;20729;-86
2022/12/07 11:26:42;;;;;;;4.07;3.67;;;4.20;45.30;;;;;;5042465;28;20204;-84
2022/12/07 11:29:57;;;;;;;4.38;3.97;;;4.30;96.80;;;;;;5043515;28;20232;-84
2022/12/07 11:33:13;;;;;;;3.72;3.38;;;4.30;71.80;;;;;;5026591;28;20232;-85
2022/12/07 11:35:52;;;;;;;4.55;3.38;;;4.20;1.00;;;;;;5093990;22;20230;-85
2022/12/07 11:38:31;;;;;;;8.25;6.32;;;4.30;91.90;;;;;;5082815;28;20229;-85
2022/12/07 11:41:14;;;;;;;6.10;4.70;;;4.20;99.90;;;;;;5083225;28;20269;-85
2022/12/07 11:43:57;;;;;;;6.07;4.50;;;4.10;99.90;;;;;;5081050;28;20213;-83
2022/12/07 11:46:36;;;;;;;6.20;5.30;;;4.20;99.90;;;;;;5083280;28;20191;-84
2022/12/07 11:49:13;;;;;;;5.40;4.93;;;4.20;99.90;;;;;;5089720;28;20202;-85
2022/12/07 11:51:46;;;;;;;4.65;4.35;;;;;;;;;;5092401;28;20196;-84
2022/12/07 11:54:22;;;;;;;5.65;5.15;;;4.20;99.90;;;;;;5090693;28;20378;-85
2022/12/07 11:56:52;;;;;;;6.15;5.53;;;4.30;99.90;;;;;;5091850;28;20224;-85
2022/12/07 11:59:49;;;;;;;7.38;5.75;;;4.30;99.90;;;;;;5087561;28;20229;-84
2022/12/07 12:05:35;;;;;;;4.53;4.13;;;;;;;;;;5050517;28;20230;-85
2022/12/07 12:08:17;;;;;;;5.35;2.92;;;4.40;96.40;;;;;;5081277;28;20205;-85
2022/12/07 12:11:14;;;;;;;;;;;;;;;;;;;;;
2022/12/07 12:14:31;;;;;;;5.28;3.80;;;4.50;99.90;;;;;;5080499;28;20293;-86
2022/12/07 12:17:52;;;;;;;3.38;3.10;;;4.60;95.70;;;;;;5083491;28;20221;-85
2022/12/07 12:20:30;;;;;;;6.68;3.72;;;4.60;1.00;;;;;;5080252;28;20203;-85
2022/12/07 12:23:16;;;;;;;9.90;5.32;;;4.50;37.70;;;;;;5083531;28;20202;-85
2022/12/07 12:25:47;;;;;;;4.88;2.83;;;;;;;;;;5080725;28;20256;-85
2022/12/07 12:28:30;;;;;;;5.13;2.90;;;4.60;1.00;;;;;;5082234;28;20716;-85
2022/12/07 12:31:39;;;;;;;11.82;4.75;;;4.50;1.00;;;;;;5082905;28;20206;-84
2022/12/07 12:34:41;;;;;;;7.63;4.75;;;4.40;48.40;;;;;;5080814;28;20299;-84
2022/12/07 12:37:43;;;;;;;4.57;3.63;;;4.50;29.20;;;;;;5079713;28;20202;-84
2022/12/07 12:40:48;;;;;;;4.10;2.70;;;4.50;71.30;;;;;;5081857;28;20232;-85
2022/12/07 12:43:54;;;;;;;5.20;3.50;;;4.50;98.70;;;;;;5081059;28;20204;-85
2022/12/07 12:46:55;;;;;;;3.15;2.70;;;4.50;36.50;;;;;;5075454;28;20221;-84
2022/12/07 12:49:44;;;;;;;4.22;3.33;;;4.50;93.60;;;;;;5078945;28;20225;-85
2022/12/07 12:52:50;;;;;;;3.30;3.00;;;4.40;89.50;;;;;;5089250;28;20206;-85
2022/12/07 12:55:21;;;;;;;4.95;3.45;;;4.30;92.40;;;;;;5088096;28;20232;-85
2022/12/07 12:58:28;;;;;;;4.50;3.78;;;4.30;99.90;;;;;;5087567;28;20185;-84
2022/12/07 13:01:28;;;;;;;4.90;4.03;;;4.30;99.90;;;;;;5084114;28;20194;-85
2022/12/07 13:03:56;;;;;;;8.93;4.47;;;4.00;99.90;;;;;;5080834;28;20680;-85
2022/12/07 13:06:37;;;;;;;5.00;3.20;;;4.40;99.90;;;;;;5080476;28;20214;-85
2022/12/07 13:09:16;;;;;;;6.60;3.35;;;4.10;99.90;;;;;;5086673;28;20229;-85
2022/12/07 13:11:46;;;;;;;4.35;3.15;;;4.10;99.90;;;;;;5091231;28;20222;-85
2022/12/07 13:14:44;;;;;;;5.15;4.25;;;4.50;99.90;;;;;;5090774;28;20240;-84
2022/12/07 13:17:12;;;;;;;12.27;4.20;;;4.50;99.90;;;;;;5094266;28;20195;-84
2022/12/07 13:20:12;;;;;;;3.95;3.10;;;4.10;99.90;;;;;;5095622;28;20195;-84
2022/12/07 13:22:47;;;;;;;3.50;2.72;;;4.50;99.90;;;;;;5096691;28;20206;-84
2022/12/07 13:25:24;;;;;;;2.20;2.00;;;4.80;99.90;;;;;;5096612;28;20222;-84
2022/12/07 13:27:58;;;;;;;2.97;2.78;;;4.60;99.90;;;;;;5095935;28;20186;-84
2022/12/07 13:30:33;;;;;;;3.85;3.03;;;4.30;99.90;;;;;;5089025;28;20218;-84
2022/12/07 13:33:08;;;;;;;8.90;3.88;;;;;;;;;;5091400;28;20198;-85
2022/12/07 13:35:37;;;;;;;2.78;2.58;;;4.60;99.90;;;;;;5089591;28;20265;-85
2022/12/07 13:38:24;;;;;;;5.18;3.20;;;4.60;99.90;;;;;;5086270;28;20198;-85
2022/12/07 13:41:05;;;;;;;4.15;3.80;;;;;;;;;;5080841;28;20197;-84
2022/12/07 13:44:05;;;;;;;5.70;3.20;;;4.50;37.00;;;;;;5079074;28;20240;-85
2022/12/07 13:47:15;;;;;;;5.38;2.50;;;4.50;50.60;;;;;;5079494;28;20207;-85
2022/12/07 13:49:52;;;;;;;4.40;2.70;;;;;;;;;;5079032;28;20207;-85
2022/12/07 13:52:49;;;;;;;4.20;2.15;;;4.60;66.10;;;;;;5080396;28;20202;-85
2022/12/07 13:58:06;;;;;;;8.25;3.83;;;;;;;;;;5084178;28;20210;-85
2022/12/07 14:00:34;;;;;;;7.07;2.60;;;;;;;;;;5082507;28;20218;-85
2022/12/07 14:03:28;;;;;;;7.32;2.40;;;;;;;;;;5082924;28;20234;-85
2022/12/07 14:06:31;;;;;;;5.32;2.25;;;4.50;60.70;;;;;;5083301;28;20226;-85
2022/12/07 14:09:18;;;;;;;1.98;1.83;;;4.90;99.90;;;;;;5094307;28;20652;-85
2022/12/07 14:11:46;;;;;;;7.38;2.20;;;4.10;99.90;;;;;;5089583;28;20199;-85
2022/12/07 14:14:17;;;;;;;5.95;2.30;;;4.20;99.90;;;;;;5090020;28;20275;-84
2022/12/07 14:19:49;;;;;;;3.28;2.13;;;4.50;99.90;;;;;;5089348;28;20579;-84
2022/12/07 14:22:39;;;;;;;3.95;2.17;;;4.80;99.90;;;;;;5091348;28;20213;-85
2022/12/07 14:25:21;;;;;;;3.78;3.25;;;4.20;99.90;;;;;;5086137;28;20246;-85
2022/12/07 14:27:55;;;;;;;6.90;3.33;;;4.20;99.90;;;;;;5086682;28;20202;-85
2022/12/07 14:30:24;;;;;;;3.67;2.80;;;4.40;99.90;;;;;;5089122;28;20186;-85
2022/12/07 14:32:54;;;;;;;6.38;3.60;;;4.40;99.90;;;;;;5096544;28;20213;-84
2022/12/07 14:35:24;;;;;;;7.25;3.30;;;4.30;99.90;;;;;;5085359;28;20352;-86
2022/12/07 14:38:32;;;;;;;4.57;2.35;;;4.30;99.90;;;;;;5080848;28;20248;-85
2022/12/07 14:44:05;;;;;;;8.50;2.60;;;;;;;;;;5081096;28;20356;-85
2022/12/07 14:46:39;;;;;;;3.50;1.92;;;;;;;;;;5082549;28;20214;-85
2022/12/07 14:49:17;;;;;;;3.92;2.53;;;;;;;;;;5084617;28;20214;-85
2022/12/07 14:52:04;;;;;;;3.05;2.85;;;;;;;;;;5093759;28;20213;-85
2022/12/07 14:54:51;;;;;;;9.20;3.38;;;;;;;;;;5085595;28;20253;-85
2022/12/07 14:57:41;;;;;;;8.35;3.10;;;3.90;99.90;;;;;;5085837;28;20642;-85
2022/12/07 15:00:14;;;;;;;3.10;2.78;;;3.90;99.90;;;;;;5085636;28;20206;-85
2022/12/07 15:02:42;;;;;;;2.55;2.28;;;4.00;1.00;;;;;;5085658;28;20191;-85
2022/12/07 15:05:09;;;;;;;3.80;2.50;;;4.10;1.00;;;;;;5082664;28;20293;-85
2022/12/07 15:07:36;;;;;;;5.88;3.03;;;3.90;1.00;;;;;;5084004;28;20297;-85
2022/12/07 15:10:04;;;;;;;3.60;2.58;;;4.00;1.00;;;;;;5083840;28;20313;-85
2022/12/07 15:12:31;;;;;;;7.47;2.53;;;3.80;1.00;;;;;;5082777;28;20621;-85
2022/12/07 15:15:01;;;;;;;7.90;2.65;;;;;;;;;;5082152;28;20238;-86
2022/12/07 15:17:28;;;;;;;6.32;2.80;;;3.80;99.90;;;;;;5081491;28;20209;-85
2022/12/07 15:19:55;;;;;;;3.45;2.90;;;3.50;1.00;;;;;;5095242;28;20193;-85
2022/12/07 15:22:22;;;;;;;9.00;5.85;;;3.80;1.00;;;;;;5097429;28;20209;-85
2022/12/07 15:24:49;;;;;;;6.47;5.88;;;3.70;1.00;;;;;;5088499;28;20295;-85
2022/12/07 15:27:18;;;;;;;8.77;3.58;;;3.70;1.00;;;;;;5085147;28;20226;-85
2022/12/07 15:29:45;;;;;;;7.60;2.90;;;3.70;1.00;;;;;;5084092;28;20234;-85
2022/12/07 15:32:14;;;;;;;4.85;2.67;;;3.40;1.00;;;;;;5083331;28;20206;-86
2022/12/07 15:34:41;;;;;;;7.15;3.10;;;;;;;;;;5081792;28;20238;-85
2022/12/07 15:37:08;;;;;;;4.50;2.75;;;3.60;1.00;;;;;;5089157;28;20262;-85
2022/12/07 15:39:37;;;;;;;18.60;4.68;;;3.40;1.00;;;;;;5084480;28;20206;-84
2022/12/07 15:42:04;;;;;;;7.97;3.30;;;;;;;;;;5082469;28;20285;-85
2022/12/07 15:47:20;;;;;;;7.72;3.20;;;3.60;1.00;;;;;;5083376;28;20672;-85
2022/12/07 15:49:47;;;;;;;8.48;3.55;;;;;;;;;;5082327;28;20232;-85
2022/12/07 15:52:15;;;;;;;2.75;2.55;;;;;;;;;;5082370;28;20293;-85
2022/12/07 15:54:47;;;;;;;6.35;4.13;;;;;;;;;;5089874;28;20228;-85
2022/12/07 15:57:14;;;;;;;4.43;2.97;;;3.60;1.00;;;;;;5094624;28;20202;-85
2022/12/07 15:59:41;;;;;;;5.78;3.45;;;3.50;1.00;;;;;;5098519;28;20209;-85
2022/12/07 16:02:09;;;;;;;3.50;2.30;;;3.70;1.00;;;;;;5098882;28;20194;-85
2022/12/07 16:04:37;;;;;;;8.00;3.10;;;3.60;1.00;;;;;;5098583;28;20249;-85
2022/12/07 16:07:04;;;;;;;6.13;3.90;;;3.90;1.00;;;;;;5089085;28;20275;-86
2022/12/07 16:09:31;;;;;;;3.63;2.95;;;3.90;1.00;;;;;;5086854;28;20225;-84
2022/12/07 16:11:58;;;;;;;6.88;2.75;;;3.80;1.00;;;;;;5083850;28;20665;-85
2022/12/07 16:14:25;;;;;;;5.95;2.78;;;3.50;1.00;;;;;;5083426;28;20281;-85
2022/12/07 16:16:52;;;;;;;7.60;4.03;;;3.70;1.00;;;;;;5082810;28;20228;-85
2022/12/07 16:19:19;;;;;;;4.00;3.60;;;3.60;1.00;;;;;;5088902;28;20250;-85
2022/12/07 16:21:47;;;;;;;8.65;4.50;;;3.00;1.00;;;;;;5093254;28;20230;-85
2022/12/07 16:24:15;;;;;;;5.28;3.40;;;3.80;1.00;;;;;;5084829;28;20257;-86
2022/12/07 16:26:41;;;;;;;3.70;2.55;;;3.90;1.00;;;;;;5083765;28;20203;-86
2022/12/07 16:29:11;;;;;;;5.65;2.45;;;3.80;1.00;;;;;;5083110;28;20632;-86
2022/12/07 16:31:38;;;;;;;4.15;2.85;;;3.70;1.00;;;;;;5083832;28;20209;-85
2022/12/07 16:34:05;;;;;;;6.43;3.30;;;;;;;;;;5082678;28;20266;-86
2022/12/07 16:36:32;;;;;;;3.60;2.60;;;3.60;1.00;;;;;;5082869;28;20189;-85
2022/12/07 16:39:00;;;;;;;6.57;2.38;;;3.40;1.00;;;;;;5086099;28;20377;-86
2022/12/07 16:41:27;;;;;;;8.52;3.53;;;3.40;1.00;;;;;;5081943;28;20229;-86
2022/12/07 16:43:55;;;;;;;3.45;3.13;;;3.50;1.00;;;;;;5082429;28;20229;-85
2022/12/07 16:46:22;;;;;;;5.10;2.58;;;;;;;;;;5084219;28;20275;-85
2022/12/07 16:48:49;;;;;;;7.20;3.38;;;3.30;1.00;;;;;;5084216;28;20234;-85
2022/12/07 16:51:19;;;;;;;3.17;2.63;;;3.30;1.00;;;;;;5085334;28;20202;-85
2022/12/07 16:53:46;;;;;;;6.18;2.72;;;3.40;1.00;;;;;;5084692;28;20265;-84
2022/12/07 16:56:16;;;;;;;4.18;2.45;;;3.40;1.00;;;;;;5085090;28;20202;-85
2022/12/07 16:58:43;;;;;;;6.55;3.15;;;3.20;1.00;;;;;;5085034;28;20224;-85
2022/12/07 17:01:11;;;;;;;5.25;4.15;;;3.00;1.00;;;;;;5089485;28;20198;-84
2022/12/07 17:03:39;;;;;;;2.83;2.63;;;;;;;;;;5091920;28;20203;-85
2022/12/07 17:06:14;;;;;;;7.05;3.58;;;3.20;1.00;;;;;;5085852;28;20199;-85
2022/12/07 17:08:44;;;;;;;11.07;3.15;;;3.40;1.00;;;;;;5085156;28;20580;-85